sensor_id;sensor_type;location;lat;lon;timestamp;pressure;altitude;pressure_sealevel;temperature;humidity
44103;BME280;29769;42.178;24.742;2023-02-23T00:01:57;99596.31;;;7.64;100.00
44103;BME280;29769;42.178;24.742;2023-02-23T00:04:44;99591.06;;;7.65;100.00
44103;BME280;29769;42.178;24.742;2023-02-23T00:07:29;99597.19;;;7.64;100.00
44103;BME280;29769;42.178;24.742;2023-02-23T00:10:14;99588.50;;;7.57;100.00
44103;BME280;29769;42.178;24.742;2023-02-23T00:12:59;99598.97;;;7.57;100.00
44103;BME280;29769;42.178;24.742;2023-02-23T00:15:44;99602.44;;;7.59;100.00
44103;BME280;29769;42.178;24.742;2023-02-23T00:18:29;99601.59;;;7.56;100.00
44103;BME280;29769;42.178;24.742;2023-02-23T00:21:16;99590.25;;;7.55;100.00
44103;BME280;29769;42.178;24.742;2023-02-23T00:24:04;99592.88;;;7.57;100.00
44103;BME280;29769;42.178;24.742;2023-02-23T00:26:49;99595.50;;;7.58;100.00
44103;BME280;29769;42.178;24.742;2023-02-23T00:29:34;99591.97;;;7.61;100.00
44103;BME280;29769;42.178;24.742;2023-02-23T00:32:23;99596.34;;;7.60;100.00
44103;BME280;29769;42.178;24.742;2023-02-23T00:35:09;99597.22;;;7.61;100.00
44103;BME280;29769;42.178;24.742;2023-02-23T00:38:03;99598.06;;;7.60;100.00
44103;BME280;29769;42.178;24.742;2023-02-23T00:40:48;99606.81;;;7.57;100.00
44103;BME280;29769;42.178;24.742;2023-02-23T00:43:38;99604.22;;;7.51;100.00
44103;BME280;29769;42.178;24.742;2023-02-23T00:46:25;99581.63;;;7.32;100.00
44103;BME280;29769;42.178;24.742;2023-02-23T00:49:12;99609.47;;;7.47;100.00
44103;BME280;29769;42.178;24.742;2023-02-23T00:51:58;99609.47;;;7.45;100.00
44103;BME280;29769;42.178;24.742;2023-02-23T00:54:43;99613.00;;;7.43;100.00
44103;BME280;29769;42.178;24.742;2023-02-23T00:57:28;99608.66;;;7.40;100.00
44103;BME280;29769;42.178;24.742;2023-02-23T01:00:13;99609.53;;;7.38;100.00
44103;BME280;29769;42.178;24.742;2023-02-23T01:03:02;99606.00;;;7.42;100.00
44103;BME280;29769;42.178;24.742;2023-02-23T01:05:46;99614.72;;;7.45;100.00
44103;BME280;29769;42.178;24.742;2023-02-23T01:08:39;99612.97;;;7.41;100.00
44103;BME280;29769;42.178;24.742;2023-02-23T01:11:26;99617.38;;;7.39;100.00
44103;BME280;29769;42.178;24.742;2023-02-23T01:14:12;99613.03;;;7.34;100.00
44103;BME280;29769;42.178;24.742;2023-02-23T01:16:58;99591.25;;;7.18;100.00
44103;BME280;29769;42.178;24.742;2023-02-23T01:19:43;99618.28;;;7.31;100.00
44103;BME280;29769;42.178;24.742;2023-02-23T01:22:30;99620.91;;;7.31;100.00
44103;BME280;29769;42.178;24.742;2023-02-23T01:25:16;99616.56;;;7.25;100.00
44103;BME280;29769;42.178;24.742;2023-02-23T01:28:01;99615.69;;;7.26;100.00
44103;BME280;29769;42.178;24.742;2023-02-23T01:30:47;99613.06;;;7.25;100.00
44103;BME280;29769;42.178;24.742;2023-02-23T01:33:32;99591.31;;;7.04;100.00
44103;BME280;29769;42.178;24.742;2023-02-23T01:36:17;99615.72;;;7.09;100.00
44103;BME280;29769;42.178;24.742;2023-02-23T01:39:04;99609.63;;;7.00;100.00
44103;BME280;29769;42.178;24.742;2023-02-23T01:41:51;99629.69;;;7.01;100.00
44103;BME280;29769;42.178;24.742;2023-02-23T01:47:26;99634.94;;;6.99;100.00
44103;BME280;29769;42.178;24.742;2023-02-23T01:50:10;99627.94;;;6.95;100.00
44103;BME280;29769;42.178;24.742;2023-02-23T01:52:56;99634.06;;;6.93;100.00
44103;BME280;29769;42.178;24.742;2023-02-23T01:55:43;99629.69;;;6.92;100.00
44103;BME280;29769;42.178;24.742;2023-02-23T01:58:29;99624.50;;;6.86;100.00
44103;BME280;29769;42.178;24.742;2023-02-23T02:01:14;99629.72;;;6.81;100.00
44103;BME280;29769;42.178;24.742;2023-02-23T02:04:03;99625.38;;;6.76;100.00
44103;BME280;29769;42.178;24.742;2023-02-23T02:06:51;99627.97;;;6.68;100.00
44103;BME280;29769;42.178;24.742;2023-02-23T02:09:40;99634.94;;;6.60;100.00
44103;BME280;29769;42.178;24.742;2023-02-23T02:12:47;99640.19;;;6.60;100.00
44103;BME280;29769;42.178;24.742;2023-02-23T02:15:43;99642.81;;;6.58;100.00
44103;BME280;29769;42.178;24.742;2023-02-23T02:22:13;99637.56;;;6.61;100.00
44103;BME280;29769;42.178;24.742;2023-02-23T02:37:35;99647.16;;;6.55;100.00
44103;BME280;29769;42.178;24.742;2023-02-23T02:40:30;99637.59;;;6.58;100.00
44103;BME280;29769;42.178;24.742;2023-02-23T02:43:47;99639.34;;;6.53;100.00
44103;BME280;29769;42.178;24.742;2023-02-23T02:46:43;99646.28;;;6.50;100.00
44103;BME280;29769;42.178;24.742;2023-02-23T02:49:39;99646.28;;;6.48;100.00
44103;BME280;29769;42.178;24.742;2023-02-23T02:52:34;99653.25;;;6.48;100.00
44103;BME280;29769;42.178;24.742;2023-02-23T02:55:23;99634.06;;;6.37;100.00
44103;BME280;29769;42.178;24.742;2023-02-23T02:58:11;99654.09;;;6.27;100.00
44103;BME280;29769;42.178;24.742;2023-02-23T03:01:05;99654.03;;;5.97;100.00
44103;BME280;29769;42.178;24.742;2023-02-23T03:04:21;99648.75;;;5.85;100.00
44103;BME280;29769;42.178;24.742;2023-02-23T03:07:32;99653.94;;;5.77;100.00
44103;BME280;29769;42.178;24.742;2023-02-23T03:17:53;99668.59;;;5.40;100.00
44103;BME280;29769;42.178;24.742;2023-02-23T03:21:04;99665.09;;;5.38;100.00
44103;BME280;29769;42.178;24.742;2023-02-23T03:27:59;99667.59;;;5.15;100.00
44103;BME280;29769;42.178;24.742;2023-02-23T03:31:29;99674.53;;;5.15;100.00
44103;BME280;29769;42.178;24.742;2023-02-23T03:34:42;99675.34;;;5.09;100.00
44103;BME280;29769;42.178;24.742;2023-02-23T03:41:20;99677.22;;;5.25;100.00
44103;BME280;29769;42.178;24.742;2023-02-23T03:44:31;99675.50;;;5.30;100.00
44103;BME280;29769;42.178;24.742;2023-02-23T03:47:39;99674.59;;;5.27;100.00
44103;BME280;29769;42.178;24.742;2023-02-23T03:50:51;99679.78;;;5.22;100.00
44103;BME280;29769;42.178;24.742;2023-02-23T03:54:02;99678.97;;;5.26;100.00
44103;BME280;29769;42.178;24.742;2023-02-23T03:57:11;99668.47;;;5.20;100.00
44103;BME280;29769;42.178;24.742;2023-02-23T04:00:31;99680.63;;;5.15;100.00
44103;BME280;29769;42.178;24.742;2023-02-23T04:03:39;99663.97;;;4.90;100.00
44103;BME280;29769;42.178;24.742;2023-02-23T04:06:45;99684.03;;;5.05;100.00
44103;BME280;29769;42.178;24.742;2023-02-23T04:09:49;99680.56;;;5.06;100.00
44103;BME280;29769;42.178;24.742;2023-02-23T04:13:10;99688.31;;;5.00;100.00
44103;BME280;29769;42.178;24.742;2023-02-23T04:16:03;99683.16;;;5.06;100.00
44103;BME280;29769;42.178;24.742;2023-02-23T04:18:49;99686.66;;;5.10;100.00
44103;BME280;29769;42.178;24.742;2023-02-23T04:21:33;99673.63;;;5.10;100.00
44103;BME280;29769;42.178;24.742;2023-02-23T04:24:18;99683.19;;;5.08;100.00
44103;BME280;29769;42.178;24.742;2023-02-23T04:27:03;99683.19;;;5.09;100.00
44103;BME280;29769;42.178;24.742;2023-02-23T04:29:48;99686.66;;;5.07;100.00
44103;BME280;29769;42.178;24.742;2023-02-23T04:32:33;99676.97;;;4.89;100.00
44103;BME280;29769;42.178;24.742;2023-02-23T04:35:18;99685.69;;;4.94;100.00
44103;BME280;29769;42.178;24.742;2023-02-23T04:38:03;99692.66;;;4.93;100.00
44103;BME280;29769;42.178;24.742;2023-02-23T04:40:48;99680.50;;;4.94;100.00
44103;BME280;29769;42.178;24.742;2023-02-23T04:43:33;99670.81;;;4.76;100.00
44103;BME280;29769;42.178;24.742;2023-02-23T04:46:18;99687.31;;;4.77;100.00
44103;BME280;29769;42.178;24.742;2023-02-23T04:49:02;99687.25;;;4.71;100.00
44103;BME280;29769;42.178;24.742;2023-02-23T04:51:47;99694.25;;;4.76;100.00
44103;BME280;29769;42.178;24.742;2023-02-23T04:54:32;99691.59;;;4.73;100.00
44103;BME280;29769;42.178;24.742;2023-02-23T04:57:17;99700.34;;;4.77;100.00
44103;BME280;29769;42.178;24.742;2023-02-23T05:00:02;99697.66;;;4.68;100.00
44103;BME280;29769;42.178;24.742;2023-02-23T05:02:48;99697.63;;;4.63;100.00
44103;BME280;29769;42.178;24.742;2023-02-23T05:05:33;99701.09;;;4.65;100.00
44103;BME280;29769;42.178;24.742;2023-02-23T05:08:18;99711.47;;;4.59;100.00
44103;BME280;29769;42.178;24.742;2023-02-23T05:11:05;99702.72;;;4.53;100.00
44103;BME280;29769;42.178;24.742;2023-02-23T05:13:50;99712.25;;;4.51;100.00
44103;BME280;29769;42.178;24.742;2023-02-23T05:16:35;99717.50;;;4.54;100.00
44103;BME280;29769;42.178;24.742;2023-02-23T05:19:20;99721.81;;;4.48;100.00
44103;BME280;29769;42.178;24.742;2023-02-23T05:22:05;99730.56;;;4.60;100.00
44103;BME280;29769;42.178;24.742;2023-02-23T05:24:50;99708.84;;;4.59;100.00
44103;BME280;29769;42.178;24.742;2023-02-23T05:27:35;99730.78;;;4.82;100.00
44103;BME280;29769;42.178;24.742;2023-02-23T05:30:20;99737.00;;;5.01;100.00
44103;BME280;29769;42.178;24.742;2023-02-23T05:33:05;99737.16;;;5.18;100.00
44103;BME280;29769;42.178;24.742;2023-02-23T05:35:49;99744.16;;;5.28;100.00
44103;BME280;29769;42.178;24.742;2023-02-23T05:38:34;99743.41;;;5.47;100.00
44103;BME280;29769;42.178;24.742;2023-02-23T05:41:21;99742.53;;;5.47;100.00
44103;BME280;29769;42.178;24.742;2023-02-23T05:44:07;99750.41;;;5.56;100.00
44103;BME280;29769;42.178;24.742;2023-02-23T05:46:52;99753.13;;;5.71;100.00
44103;BME280;29769;42.178;24.742;2023-02-23T05:49:36;99752.41;;;5.95;100.00
44103;BME280;29769;42.178;24.742;2023-02-23T05:52:22;99764.69;;;6.24;100.00
44103;BME280;29769;42.178;24.742;2023-02-23T05:55:09;99761.28;;;6.57;100.00
44103;BME280;29769;42.178;24.742;2023-02-23T05:57:58;99770.91;;;6.86;100.00
44103;BME280;29769;42.178;24.742;2023-02-23T06:00:43;99775.25;;;7.05;100.00
44103;BME280;29769;42.178;24.742;2023-02-23T06:03:28;99776.13;;;7.34;100.00
44103;BME280;29769;42.178;24.742;2023-02-23T06:06:14;99777.81;;;7.70;100.00
44103;BME280;29769;42.178;24.742;2023-02-23T06:09:00;99761.97;;;8.05;100.00
44103;BME280;29769;42.178;24.742;2023-02-23T06:11:45;99781.91;;;8.45;100.00
44103;BME280;29769;42.178;24.742;2023-02-23T06:14:29;99786.00;;;8.93;100.00
44103;BME280;29769;42.178;24.742;2023-02-23T06:17:14;99777.94;;;9.13;99.38
44103;BME280;29769;42.178;24.742;2023-02-23T06:19:59;99788.25;;;9.36;96.36
44103;BME280;29769;42.178;24.742;2023-02-23T06:22:45;99772.31;;;9.56;95.13
44103;BME280;29769;42.178;24.742;2023-02-23T06:25:31;99785.88;;;9.99;91.70
44103;BME280;29769;42.178;24.742;2023-02-23T06:28:16;99785.59;;;10.24;88.58
44103;BME280;29769;42.178;24.742;2023-02-23T06:31:01;99790.34;;;10.62;84.99
44103;BME280;29769;42.178;24.742;2023-02-23T06:33:47;99789.00;;;10.94;84.12
44103;BME280;29769;42.178;24.742;2023-02-23T06:36:32;99789.72;;;11.55;80.76
44103;BME280;29769;42.178;24.742;2023-02-23T06:39:17;99787.63;;;12.22;76.53
44103;BME280;29769;42.178;24.742;2023-02-23T06:42:02;99794.28;;;12.81;72.00
44103;BME280;29769;42.178;24.742;2023-02-23T06:44:47;99796.16;;;13.13;69.36
44103;BME280;29769;42.178;24.742;2023-02-23T06:47:32;99794.50;;;13.78;66.71
44103;BME280;29769;42.178;24.742;2023-02-23T06:50:17;99782.41;;;14.33;63.80
44103;BME280;29769;42.178;24.742;2023-02-23T06:53:02;99791.69;;;14.77;61.34
44103;BME280;29769;42.178;24.742;2023-02-23T06:55:47;99803.19;;;15.31;58.32
44103;BME280;29769;42.178;24.742;2023-02-23T06:58:32;99801.97;;;15.41;57.43
44103;BME280;29769;42.178;24.742;2023-02-23T07:01:16;99788.88;;;15.89;56.23
44103;BME280;29769;42.178;24.742;2023-02-23T07:04:02;99794.22;;;16.36;53.27
44103;BME280;29769;42.178;24.742;2023-02-23T07:06:48;99792.91;;;16.48;52.63
44103;BME280;29769;42.178;24.742;2023-02-23T07:09:32;99785.88;;;16.70;51.31
44103;BME280;29769;42.178;24.742;2023-02-23T07:12:17;99788.06;;;17.47;49.21
44103;BME280;29769;42.178;24.742;2023-02-23T07:15:02;99790.25;;;17.80;47.21
44103;BME280;29769;42.178;24.742;2023-02-23T07:17:47;99790.81;;;18.27;46.19
44103;BME280;29769;42.178;24.742;2023-02-23T07:20:33;99771.22;;;18.48;44.92
44103;BME280;29769;42.178;24.742;2023-02-23T07:23:18;99783.50;;;18.89;43.36
44103;BME280;29769;42.178;24.742;2023-02-23T07:26:03;99787.59;;;18.59;44.26
44103;BME280;29769;42.178;24.742;2023-02-23T07:28:49;99790.19;;;18.60;43.96
44103;BME280;29769;42.178;24.742;2023-02-23T07:31:34;99786.31;;;19.22;42.39
44103;BME280;29769;42.178;24.742;2023-02-23T07:34:19;99792.47;;;18.68;43.09
44103;BME280;29769;42.178;24.742;2023-02-23T07:37:04;99786.88;;;18.93;43.59
44103;BME280;29769;42.178;24.742;2023-02-23T07:39:49;99792.91;;;18.59;43.71
44103;BME280;29769;42.178;24.742;2023-02-23T07:42:34;99787.53;;;18.40;44.37
44103;BME280;29769;42.178;24.742;2023-02-23T07:45:19;99789.53;;;17.96;45.54
44103;BME280;29769;42.178;24.742;2023-02-23T07:48:04;99782.47;;;18.92;43.57
44103;BME280;29769;42.178;24.742;2023-02-23T07:50:49;99772.41;;;16.98;47.88
44103;BME280;29769;42.178;24.742;2023-02-23T07:53:33;99789.69;;;16.63;49.77
44103;BME280;29769;42.178;24.742;2023-02-23T07:56:18;99786.72;;;17.15;48.85
44103;BME280;29769;42.178;24.742;2023-02-23T07:59:03;99773.69;;;16.87;49.25
44103;BME280;29769;42.178;24.742;2023-02-23T08:01:48;99773.81;;;17.70;47.74
44103;BME280;29769;42.178;24.742;2023-02-23T08:04:35;99776.06;;;18.19;45.89
44103;BME280;29769;42.178;24.742;2023-02-23T08:07:21;99778.44;;;17.01;49.10
44103;BME280;29769;42.178;24.742;2023-02-23T08:10:06;99765.97;;;17.25;48.54
44103;BME280;29769;42.178;24.742;2023-02-23T08:12:50;99769.16;;;18.15;46.83
44103;BME280;29769;42.178;24.742;2023-02-23T08:15:35;99769.41;;;17.27;48.11
44103;BME280;29769;42.178;24.742;2023-02-23T08:18:20;99782.88;;;16.79;50.38
44103;BME280;29769;42.178;24.742;2023-02-23T08:21:05;99782.91;;;16.54;51.62
44103;BME280;29769;42.178;24.742;2023-02-23T08:23:50;99780.03;;;16.62;51.77
44103;BME280;29769;42.178;24.742;2023-02-23T08:26:35;99766.53;;;17.11;49.51
44103;BME280;29769;42.178;24.742;2023-02-23T08:29:21;99760.00;;;17.62;48.53
44103;BME280;29769;42.178;24.742;2023-02-23T08:32:06;99788.53;;;18.38;46.01
44103;BME280;29769;42.178;24.742;2023-02-23T08:34:51;99780.03;;;18.30;45.84
44103;BME280;29769;42.178;24.742;2023-02-23T08:37:36;99781.59;;;18.73;45.01
44103;BME280;29769;42.178;24.742;2023-02-23T08:40:21;99780.91;;;18.88;44.40
44103;BME280;29769;42.178;24.742;2023-02-23T08:43:05;99780.63;;;18.75;44.90
44103;BME280;29769;42.178;24.742;2023-02-23T08:45:50;99784.00;;;18.60;45.43
44103;BME280;29769;42.178;24.742;2023-02-23T08:48:35;99785.72;;;19.34;43.78
44103;BME280;29769;42.178;24.742;2023-02-23T08:51:22;99763.31;;;20.07;41.48
44103;BME280;29769;42.178;24.742;2023-02-23T08:54:07;99782.63;;;20.78;40.85
44103;BME280;29769;42.178;24.742;2023-02-23T08:56:57;99774.03;;;21.50;39.56
44103;BME280;29769;42.178;24.742;2023-02-23T08:59:42;99777.13;;;20.15;41.38
44103;BME280;29769;42.178;24.742;2023-02-23T09:02:27;99774.81;;;20.42;40.82
44103;BME280;29769;42.178;24.742;2023-02-23T09:05:13;99779.22;;;20.43;40.99
44103;BME280;29769;42.178;24.742;2023-02-23T09:07:58;99778.47;;;21.35;39.35
44103;BME280;29769;42.178;24.742;2023-02-23T09:10:42;99763.22;;;20.90;39.23
44103;BME280;29769;42.178;24.742;2023-02-23T09:13:27;99771.59;;;20.35;41.47
44103;BME280;29769;42.178;24.742;2023-02-23T09:16:12;99765.59;;;21.71;38.83
44103;BME280;29769;42.178;24.742;2023-02-23T09:18:57;99764.00;;;22.55;35.96
44103;BME280;29769;42.178;24.742;2023-02-23T09:21:44;99764.97;;;22.40;36.37
44103;BME280;29769;42.178;24.742;2023-02-23T09:24:30;99760.81;;;23.32;35.08
44103;BME280;29769;42.178;24.742;2023-02-23T09:27:16;99748.22;;;22.23;36.69
44103;BME280;29769;42.178;24.742;2023-02-23T09:30:01;99769.56;;;23.22;34.74
44103;BME280;29769;42.178;24.742;2023-02-23T09:32:48;99770.72;;;23.18;34.67
44103;BME280;29769;42.178;24.742;2023-02-23T09:35:33;99762.16;;;23.91;33.24
44103;BME280;29769;42.178;24.742;2023-02-23T09:38:19;99758.97;;;24.37;32.30
44103;BME280;29769;42.178;24.742;2023-02-23T09:41:15;99767.59;;;23.11;34.37
44103;BME280;29769;42.178;24.742;2023-02-23T09:44:27;99763.63;;;22.61;35.31
44103;BME280;29769;42.178;24.742;2023-02-23T09:50:20;99750.16;;;23.58;33.46
44103;BME280;29769;42.178;24.742;2023-02-23T09:53:17;99748.09;;;24.01;33.18
44103;BME280;29769;42.178;24.742;2023-02-23T09:56:17;99745.94;;;24.06;32.56
44103;BME280;29769;42.178;24.742;2023-02-23T09:59:06;99741.25;;;24.34;32.21
44103;BME280;29769;42.178;24.742;2023-02-23T10:02:08;99745.81;;;23.82;32.44
44103;BME280;29769;42.178;24.742;2023-02-23T10:05:04;99744.47;;;24.27;32.17
44103;BME280;29769;42.178;24.742;2023-02-23T10:07:52;99735.97;;;24.82;31.71
44103;BME280;29769;42.178;24.742;2023-02-23T10:13:47;99746.31;;;23.62;32.74
44103;BME280;29769;42.178;24.742;2023-02-23T10:22:42;99713.03;;;24.40;32.04
44103;BME280;29769;42.178;24.742;2023-02-23T10:25:30;99710.81;;;24.34;32.06
44103;BME280;29769;42.178;24.742;2023-02-23T10:28:19;99715.31;;;24.95;31.26
44103;BME280;29769;42.178;24.742;2023-02-23T10:31:32;99711.28;;;26.29;29.31
44103;BME280;29769;42.178;24.742;2023-02-23T10:34:19;99707.31;;;26.89;28.37
44103;BME280;29769;42.178;24.742;2023-02-23T10:37:05;99711.25;;;25.37;29.77
44103;BME280;29769;42.178;24.742;2023-02-23T10:39:54;99704.47;;;27.02;28.52
44103;BME280;29769;42.178;24.742;2023-02-23T10:42:39;99698.53;;;25.39;30.05
44103;BME280;29769;42.178;24.742;2023-02-23T10:45:26;99694.00;;;26.21;29.43
44103;BME280;29769;42.178;24.742;2023-02-23T10:48:20;99694.25;;;24.76;31.01
44103;BME280;29769;42.178;24.742;2023-02-23T10:51:06;99694.03;;;25.86;30.25
44103;BME280;29769;42.178;24.742;2023-02-23T10:53:57;99687.47;;;26.23;29.58
44103;BME280;29769;42.178;24.742;2023-02-23T10:56:43;99681.63;;;27.06;28.56
44103;BME280;29769;42.178;24.742;2023-02-23T10:59:30;99684.53;;;26.37;28.58
44103;BME280;29769;42.178;24.742;2023-02-23T11:02:22;99679.75;;;26.41;28.86
44103;BME280;29769;42.178;24.742;2023-02-23T11:05:30;99684.25;;;25.96;29.96
44103;BME280;29769;42.178;24.742;2023-02-23T11:14:15;99677.28;;;26.49;28.46
44103;BME280;29769;42.178;24.742;2023-02-23T11:17:00;99635.13;;;25.92;28.71
44103;BME280;29769;42.178;24.742;2023-02-23T11:19:45;99668.53;;;27.22;27.93
44103;BME280;29769;42.178;24.742;2023-02-23T11:22:33;99670.41;;;28.55;26.66
44103;BME280;29769;42.178;24.742;2023-02-23T11:25:29;99661.50;;;28.74;25.79
44103;BME280;29769;42.178;24.742;2023-02-23T11:31:18;99672.09;;;24.73;31.39
44103;BME280;29769;42.178;24.742;2023-02-23T11:34:05;99661.69;;;24.07;32.53
44103;BME280;29769;42.178;24.742;2023-02-23T11:37:02;99651.50;;;25.78;30.67
44103;BME280;29769;42.178;24.742;2023-02-23T11:39:52;99650.94;;;26.41;29.51
44103;BME280;29769;42.178;24.742;2023-02-23T11:42:50;99654.38;;;24.34;32.70
44103;BME280;29769;42.178;24.742;2023-02-23T11:45:48;99652.16;;;24.88;32.33
44103;BME280;29769;42.178;24.742;2023-02-23T11:48:57;99643.94;;;25.83;31.07
44103;BME280;29769;42.178;24.742;2023-02-23T11:51:46;99653.50;;;27.08;29.30
44103;BME280;29769;42.178;24.742;2023-02-23T11:54:34;99652.88;;;26.17;30.28
44103;BME280;29769;42.178;24.742;2023-02-23T11:57:24;99644.34;;;25.20;31.66
44103;BME280;29769;42.178;24.742;2023-02-23T12:00:19;99650.16;;;24.05;32.81
44103;BME280;29769;42.178;24.742;2023-02-23T12:03:04;99646.72;;;25.36;31.78
44103;BME280;29769;42.178;24.742;2023-02-23T12:05:53;99650.81;;;26.09;30.67
44103;BME280;29769;42.178;24.742;2023-02-23T12:08:49;99648.22;;;25.97;30.67
44103;BME280;29769;42.178;24.742;2023-02-23T12:11:45;99641.06;;;24.93;32.16
44103;BME280;29769;42.178;24.742;2023-02-23T12:14:36;99648.13;;;25.52;31.18
44103;BME280;29769;42.178;24.742;2023-02-23T12:17:33;99651.66;;;25.42;31.52
44103;BME280;29769;42.178;24.742;2023-02-23T12:20:28;99646.53;;;26.07;31.15
44103;BME280;29769;42.178;24.742;2023-02-23T12:23:32;99652.56;;;23.84;34.47
44103;BME280;29769;42.178;24.742;2023-02-23T12:26:19;99654.66;;;24.42;34.03
44103;BME280;29769;42.178;24.742;2023-02-23T12:29:18;99648.56;;;23.77;34.65
44103;BME280;29769;42.178;24.742;2023-02-23T12:32:10;99661.34;;;22.68;37.03
44103;BME280;29769;42.178;24.742;2023-02-23T12:38:10;99659.06;;;22.76;37.68
44103;BME280;29769;42.178;24.742;2023-02-23T12:41:13;99663.53;;;23.41;37.33
44103;BME280;29769;42.178;24.742;2023-02-23T12:44:04;99669.69;;;22.63;38.13
44103;BME280;29769;42.178;24.742;2023-02-23T12:47:03;99673.38;;;21.33;41.98
44103;BME280;29769;42.178;24.742;2023-02-23T12:50:05;99668.31;;;21.13;42.31
44103;BME280;29769;42.178;24.742;2023-02-23T12:53:00;99681.16;;;20.12;46.17
44103;BME280;29769;42.178;24.742;2023-02-23T13:05:32;99682.84;;;19.97;47.11
44103;BME280;29769;42.178;24.742;2023-02-23T13:12:00;99678.88;;;19.20;51.15
44103;BME280;29769;42.178;24.742;2023-02-23T13:15:11;99679.34;;;18.75;53.99
44103;BME280;29769;42.178;24.742;2023-02-23T13:18:08;99691.75;;;18.39;55.07
44103;BME280;29769;42.178;24.742;2023-02-23T13:21:10;99683.09;;;18.15;55.51
44103;BME280;29769;42.178;24.742;2023-02-23T13:24:09;99688.66;;;17.90;57.13
44103;BME280;29769;42.178;24.742;2023-02-23T13:27:04;99688.41;;;17.56;59.51
44103;BME280;29769;42.178;24.742;2023-02-23T13:29:52;99669.63;;;16.98;61.61
44103;BME280;29769;42.178;24.742;2023-02-23T13:32:39;99639.31;;;16.60;64.14
44103;BME280;29769;42.178;24.742;2023-02-23T13:35:24;99695.63;;;16.90;65.94
44103;BME280;29769;42.178;24.742;2023-02-23T13:38:38;99696.63;;;16.87;66.85
44103;BME280;29769;42.178;24.742;2023-02-23T13:41:34;99697.59;;;17.49;63.04
44103;BME280;29769;42.178;24.742;2023-02-23T13:56:58;99716.69;;;14.48;84.18
44103;BME280;29769;42.178;24.742;2023-02-23T13:59:45;99719.78;;;14.02;89.97
44103;BME280;29769;42.178;24.742;2023-02-23T14:02:36;99723.25;;;13.06;99.72
44103;BME280;29769;42.178;24.742;2023-02-23T14:05:24;99731.41;;;12.95;100.00
44103;BME280;29769;42.178;24.742;2023-02-23T14:08:22;99734.81;;;13.00;100.00
44103;BME280;29769;42.178;24.742;2023-02-23T14:11:27;99728.50;;;13.07;100.00
44103;BME280;29769;42.178;24.742;2023-02-23T14:23:13;99725.50;;;13.56;96.96
44103;BME280;29769;42.178;24.742;2023-02-23T14:29:15;99744.63;;;12.58;100.00
44103;BME280;29769;42.178;24.742;2023-02-23T14:35:00;99740.88;;;12.28;100.00
44103;BME280;29769;42.178;24.742;2023-02-23T14:37:54;99739.53;;;12.09;100.00
44103;BME280;29769;42.178;24.742;2023-02-23T14:40:42;99743.00;;;12.13;100.00
44103;BME280;29769;42.178;24.742;2023-02-23T14:46:24;99758.72;;;11.71;100.00
44103;BME280;29769;42.178;24.742;2023-02-23T14:49:16;99750.41;;;11.94;100.00
44103;BME280;29769;42.178;24.742;2023-02-23T14:52:26;99747.31;;;11.69;100.00
44103;BME280;29769;42.178;24.742;2023-02-23T14:57:56;99754.94;;;11.37;100.00
44103;BME280;29769;42.178;24.742;2023-02-23T15:00:41;99770.94;;;11.26;100.00
44103;BME280;29769;42.178;24.742;2023-02-23T15:03:27;99767.41;;;11.27;100.00
44103;BME280;29769;42.178;24.742;2023-02-23T15:06:12;99766.75;;;11.14;100.00
44103;BME280;29769;42.178;24.742;2023-02-23T15:08:57;99765.97;;;11.08;100.00
44103;BME280;29769;42.178;24.742;2023-02-23T15:11:42;99766.06;;;11.02;100.00
44103;BME280;29769;42.178;24.742;2023-02-23T15:14:32;99770.31;;;11.09;100.00
44103;BME280;29769;42.178;24.742;2023-02-23T15:17:23;99761.53;;;11.11;100.00
44103;BME280;29769;42.178;24.742;2023-02-23T15:20:13;99765.19;;;11.03;100.00
44103;BME280;29769;42.178;24.742;2023-02-23T15:23:02;99772.50;;;10.84;100.00
44103;BME280;29769;42.178;24.742;2023-02-23T15:25:48;99765.50;;;10.82;100.00
44103;BME280;29769;42.178;24.742;2023-02-23T15:28:38;99778.78;;;10.73;100.00
44103;BME280;29769;42.178;24.742;2023-02-23T15:31:28;99775.31;;;10.70;100.00
44103;BME280;29769;42.178;24.742;2023-02-23T15:34:14;99780.78;;;10.55;100.00
44103;BME280;29769;42.178;24.742;2023-02-23T15:37:02;99780.88;;;10.49;100.00
44103;BME280;29769;42.178;24.742;2023-02-23T15:42:38;99800.03;;;10.60;100.00
44103;BME280;29769;42.178;24.742;2023-02-23T15:48:16;99793.13;;;10.50;100.00
44103;BME280;29769;42.178;24.742;2023-02-23T15:51:02;99801.84;;;10.55;100.00
44103;BME280;29769;42.178;24.742;2023-02-23T15:53:49;99795.94;;;10.37;100.00
44103;BME280;29769;42.178;24.742;2023-02-23T15:56:35;99805.47;;;10.45;100.00
44103;BME280;29769;42.178;24.742;2023-02-23T15:59:25;99815.09;;;10.46;100.00
44103;BME280;29769;42.178;24.742;2023-02-23T16:02:16;99807.34;;;10.37;100.00
44103;BME280;29769;42.178;24.742;2023-02-23T16:05:22;99797.81;;;10.27;100.00
44103;BME280;29769;42.178;24.742;2023-02-23T16:08:23;99817.03;;;10.35;100.00
44103;BME280;29769;42.178;24.742;2023-02-23T16:11:14;99818.63;;;10.45;100.00
44103;BME280;29769;42.178;24.742;2023-02-23T16:14:01;99824.69;;;10.50;100.00
44103;BME280;29769;42.178;24.742;2023-02-23T16:16:49;99824.69;;;10.50;100.00
44103;BME280;29769;42.178;24.742;2023-02-23T16:19:35;99838.66;;;10.55;100.00
44103;BME280;29769;42.178;24.742;2023-02-23T16:22:25;99832.56;;;10.53;100.00
44103;BME280;29769;42.178;24.742;2023-02-23T16:25:13;99839.59;;;10.53;100.00
44103;BME280;29769;42.178;24.742;2023-02-23T16:28:06;99837.78;;;10.58;100.00
44103;BME280;29769;42.178;24.742;2023-02-23T16:31:06;99841.28;;;10.54;100.00
44103;BME280;29769;42.178;24.742;2023-02-23T16:33:54;99842.13;;;10.59;100.00
44103;BME280;29769;42.178;24.742;2023-02-23T16:36:40;99849.94;;;10.63;100.00